Time;durP1;ratioP1;P1;durP2;ratioP2;P2;SDS_P1;SDS_P2;PMS_P1;PMS_P2;Temp;Humidity;BMP_temperature;BMP_pressure;BME280_temperature;BME280_humidity;BME280_pressure;Samples;Min_cycle;Max_cycle;Signal;HPM_P1;HPM_P2
2022/10/04 00:07:44;;;;;;;7.6;13;;;;;;;10.5;91.1;98860;;;;
2022/10/04 00:17:44;;;;;;;7.6;13;;;;;;;10.5;91.3;98860;;;;
2022/10/04 00:28:44;;;;;;;7.6;13;;;;;;;10.5;91;98850;;;;
2022/10/04 00:38:44;;;;;;;7.9;13.7;;;;;;;10.6;90.9;98850;;;;
2022/10/04 00:48:44;;;;;;;7.9;13.7;;;;;;;10.5;90.9;98850;;;;
2022/10/04 00:59:44;;;;;;;7.9;13.7;;;;;;;10.5;90.9;98840;;;;
2022/10/04 01:10:44;;;;;;;5.3;12.4;;;;;;;10.6;90.9;98840;;;;
2022/10/04 01:20:44;;;;;;;5.3;12.4;;;;;;;10.5;90.9;98830;;;;
2022/10/04 01:30:44;;;;;;;5.3;12.4;;;;;;;10.4;91.2;98830;;;;
2022/10/04 01:40:44;;;;;;;8.2;12.6;;;;;;;10.4;91.5;98830;;;;
2022/10/04 01:51:44;;;;;;;8.2;12.6;;;;;;;10.5;91.5;98830;;;;
2022/10/04 02:01:44;;;;;;;8.2;12.6;;;;;;;10.5;91.4;98840;;;;
2022/10/04 02:12:45;;;;;;;8.5;12.2;;;;;;;10.5;91.1;98840;;;;
2022/10/04 02:22:44;;;;;;;8.5;12.2;;;;;;;10.4;90.5;98830;;;;
2022/10/04 02:33:44;;;;;;;5.7;8.8;;;;;;;10.3;89.9;98820;;;;
2022/10/04 02:43:44;;;;;;;5.7;8.8;;;;;;;10.2;90;98830;;;;
2022/10/04 02:54:44;;;;;;;5.7;8.8;;;;;;;10.1;90.1;98830;;;;
2022/10/04 03:04:44;;;;;;;4.7;9.1;;;;;;;10;90.4;98840;;;;
2022/10/04 03:14:44;;;;;;;4.7;9.1;;;;;;;9.9;90.6;98840;;;;
2022/10/04 03:25:44;;;;;;;4.7;9.1;;;;;;;9.9;90.9;98840;;;;
2022/10/04 03:36:44;;;;;;;4.9;10.8;;;;;;;10;91.4;98840;;;;
2022/10/04 03:47:44;;;;;;;4.9;10.8;;;;;;;9.8;91.3;98840;;;;
2022/10/04 03:57:44;;;;;;;4.9;10.8;;;;;;;9.7;91.2;98840;;;;
2022/10/04 04:08:44;;;;;;;5.7;11.1;;;;;;;9.7;90.9;98850;;;;
2022/10/04 04:18:44;;;;;;;5.7;11.1;;;;;;;9.7;90.7;98860;;;;
2022/10/04 04:29:44;;;;;;;5.7;11.1;;;;;;;9.8;90.5;98860;;;;
2022/10/04 04:39:48;;;;;;;4.4;8.8;;;;;;;9.8;90.6;98860;;;;
2022/10/04 04:49:44;;;;;;;4.4;8.8;;;;;;;9.9;90.9;98880;;;;
2022/10/04 05:00:44;;;;;;;4.4;8.8;;;;;;;10;91;98890;;;;
2022/10/04 05:11:44;;;;;;;5.5;11.2;;;;;;;10.1;91.2;98900;;;;
2022/10/04 05:21:45;;;;;;;5.5;11.2;;;;;;;10.2;91.5;98920;;;;
2022/10/04 05:32:44;;;;;;;5.5;11.2;;;;;;;10.4;91.2;98930;;;;
2022/10/04 05:43:44;;;;;;;7.1;13.4;;;;;;;10.5;90.5;98940;;;;
2022/10/04 05:53:45;;;;;;;7.1;13.4;;;;;;;10.6;90.5;98950;;;;
2022/10/04 06:04:44;;;;;;;6.7;11.5;;;;;;;10.6;90.3;98960;;;;
2022/10/04 06:15:44;;;;;;;6.7;11.5;;;;;;;10.8;89.7;98970;;;;
2022/10/04 06:25:44;;;;;;;6.7;11.5;;;;;;;11;88.5;98980;;;;
2022/10/04 06:36:44;;;;;;;8.2;14.1;;;;;;;11.2;87.4;98990;;;;
2022/10/04 06:46:44;;;;;;;8.2;14.1;;;;;;;11.4;86.1;99000;;;;
2022/10/04 06:57:44;;;;;;;8.2;14.1;;;;;;;11.6;84.9;99010;;;;
2022/10/04 07:07:46;;;;;;;6.6;11;;;;;;;11.7;83.9;99010;;;;
2022/10/04 07:17:44;;;;;;;6.6;11;;;;;;;11.8;83.3;99050;;;;
2022/10/04 07:29:48;;;;;;;6.6;11;;;;;;;11.8;82.8;99050;;;;
2022/10/04 07:39:44;;;;;;;5.8;8.4;;;;;;;11.9;82.1;99060;;;;
2022/10/04 07:49:44;;;;;;;5.8;8.4;;;;;;;11.8;80.9;99060;;;;
2022/10/04 08:00:46;;;;;;;5.8;8.4;;;;;;;12.1;81.3;99070;;;;
2022/10/04 08:10:44;;;;;;;4.9;10;;;;;;;12.3;80.4;99090;;;;
2022/10/04 08:21:44;;;;;;;4.9;10;;;;;;;12.3;79.8;99100;;;;
2022/10/04 08:32:44;;;;;;;4.8;8.4;;;;;;;12.5;80.2;99110;;;;
2022/10/04 08:42:44;;;;;;;4.8;8.4;;;;;;;12.6;79.8;99120;;;;
2022/10/04 08:52:44;;;;;;;4.8;8.4;;;;;;;12.6;79.2;99120;;;;
2022/10/04 09:03:44;;;;;;;5;12.6;;;;;;;12.7;78.6;99130;;;;
2022/10/04 09:13:44;;;;;;;5;12.6;;;;;;;12.9;77.9;99140;;;;
2022/10/04 09:24:44;;;;;;;5;12.6;;;;;;;12.9;78.3;99160;;;;
2022/10/04 09:34:44;;;;;;;4;9.2;;;;;;;12.9;78.1;99160;;;;
2022/10/04 09:45:44;;;;;;;4;9.2;;;;;;;13.6;78;99170;;;;
2022/10/04 09:56:44;;;;;;;4;9.2;;;;;;;13.7;74.7;99170;;;;
2022/10/04 10:06:45;;;;;;;4.2;8.1;;;;;;;13.9;74.8;99170;;;;
2022/10/04 10:16:44;;;;;;;4.2;8.1;;;;;;;14.5;73.3;99170;;;;
2022/10/04 10:27:44;;;;;;;4.2;8.1;;;;;;;14.7;73;99180;;;;
2022/10/04 10:37:44;;;;;;;4.7;11;;;;;;;14.2;73.3;99190;;;;
2022/10/04 10:47:44;;;;;;;4.7;11;;;;;;;14.7;72.1;99200;;;;
2022/10/04 10:58:44;;;;;;;4.7;11;;;;;;;14.8;70.4;99200;;;;
2022/10/04 11:09:44;;;;;;;3.9;7.5;;;;;;;15;70.3;99190;;;;
2022/10/04 11:19:45;;;;;;;3.9;7.5;;;;;;;15.6;69.2;99200;;;;
2022/10/04 11:30:44;;;;;;;3.9;7.5;;;;;;;15.4;67.6;99200;;;;
2022/10/04 11:41:46;;;;;;;3;7.6;;;;;;;15.3;65.4;99210;;;;
2022/10/04 11:52:46;;;;;;;3;7.6;;;;;;;14.6;68.9;99220;;;;
2022/10/04 12:02:44;;;;;;;2.6;6.4;;;;;;;14.6;69;99210;;;;
2022/10/04 12:13:44;;;;;;;2.6;6.4;;;;;;;14.8;67.4;99220;;;;
2022/10/04 12:23:44;;;;;;;2.6;6.4;;;;;;;15.2;66.7;99230;;;;
2022/10/04 12:33:44;;;;;;;3;7.4;;;;;;;15.3;65.6;99230;;;;
2022/10/04 12:44:44;;;;;;;3;7.4;;;;;;;15.2;66.1;99220;;;;
2022/10/04 12:54:44;;;;;;;3;7.4;;;;;;;15.2;65.3;99220;;;;
2022/10/04 13:05:44;;;;;;;2.3;5.5;;;;;;;15.7;64.9;99230;;;;
2022/10/04 13:15:44;;;;;;;2.3;5.5;;;;;;;16;62.2;99230;;;;
2022/10/04 13:25:44;;;;;;;2.3;5.5;;;;;;;15.8;59.5;99240;;;;
2022/10/04 13:36:44;;;;;;;2.1;4.7;;;;;;;15.7;58.8;99240;;;;
2022/10/04 13:46:44;;;;;;;2.1;4.7;;;;;;;16.3;58;99230;;;;
2022/10/04 13:57:44;;;;;;;2.1;4.7;;;;;;;16.4;56.8;99250;;;;
2022/10/04 14:08:44;;;;;;;2.3;4.6;;;;;;;15.8;57.5;99260;;;;
2022/10/04 14:19:44;;;;;;;2.3;4.6;;;;;;;15.8;57.6;99260;;;;
2022/10/04 14:29:45;;;;;;;2.3;4.6;;;;;;;15.7;55.8;99260;;;;
2022/10/04 14:40:44;;;;;;;1.8;4.4;;;;;;;15.5;58.1;99260;;;;
2022/10/04 14:51:44;;;;;;;1.8;4.4;;;;;;;15.5;57.5;99250;;;;
2022/10/04 15:02:46;;;;;;;2.5;7.3;;;;;;;15.4;58;99270;;;;
2022/10/04 15:12:44;;;;;;;2.5;7.3;;;;;;;15.1;58.3;99280;;;;
2022/10/04 15:22:44;;;;;;;2.5;7.3;;;;;;;14.7;59.6;99290;;;;
2022/10/04 15:32:44;;;;;;;3.3;7.5;;;;;;;14.3;61.4;99300;;;;
2022/10/04 15:43:44;;;;;;;3.3;7.5;;;;;;;13.9;62.5;99310;;;;
2022/10/04 15:53:44;;;;;;;3.3;7.5;;;;;;;13.5;64.5;99320;;;;
2022/10/04 16:03:45;;;;;;;4;7.8;;;;;;;12.8;67.2;99330;;;;
2022/10/04 16:14:44;;;;;;;4;7.8;;;;;;;12.1;68.4;99340;;;;
2022/10/04 16:24:45;;;;;;;4;7.8;;;;;;;11.4;70.1;99350;;;;
2022/10/04 16:35:44;;;;;;;5.1;11.5;;;;;;;11;72.5;99350;;;;
2022/10/04 16:46:44;;;;;;;5.1;11.5;;;;;;;10.7;73.3;99360;;;;
2022/10/04 16:56:44;;;;;;;5.1;11.5;;;;;;;10.4;74;99370;;;;
2022/10/04 17:06:44;;;;;;;4.5;11.9;;;;;;;10;75.2;99390;;;;
2022/10/04 17:16:44;;;;;;;4.5;11.9;;;;;;;9.9;76.7;99400;;;;
2022/10/04 17:27:44;;;;;;;4.5;11.9;;;;;;;9.7;77;99410;;;;
2022/10/04 17:37:45;;;;;;;5.3;10.3;;;;;;;9.7;77.3;99420;;;;
2022/10/04 17:59:44;;;;;;;5.3;10.3;;;;;;;9.4;79.5;99440;;;;
2022/10/04 18:10:44;;;;;;;5.9;12.6;;;;;;;9.4;79.3;99450;;;;
2022/10/04 18:20:44;;;;;;;5.9;12.6;;;;;;;9.2;80;99470;;;;
2022/10/04 18:31:44;;;;;;;5.9;12.6;;;;;;;9.2;80.9;99480;;;;
2022/10/04 18:42:44;;;;;;;6.9;10.9;;;;;;;9.1;82.3;99480;;;;
2022/10/04 18:53:44;;;;;;;6.9;10.9;;;;;;;9;82.3;99480;;;;
2022/10/04 19:04:45;;;;;;;7.1;12;;;;;;;9.1;82.9;99490;;;;
2022/10/04 19:15:44;;;;;;;7.1;12;;;;;;;9;82.8;99500;;;;
2022/10/04 19:25:44;;;;;;;7.1;12;;;;;;;8.9;82.6;99500;;;;
2022/10/04 19:36:45;;;;;;;7.4;11.8;;;;;;;8.8;83.2;99510;;;;
2022/10/04 19:46:44;;;;;;;7.4;11.8;;;;;;;8.7;83.8;99510;;;;
2022/10/04 19:56:44;;;;;;;7.4;11.8;;;;;;;8.6;83.4;99520;;;;
2022/10/04 20:06:44;;;;;;;7.3;13;;;;;;;8.4;83.4;99530;;;;
2022/10/04 20:17:44;;;;;;;7.3;13;;;;;;;8.2;83.6;99540;;;;
2022/10/04 20:27:44;;;;;;;7.3;13;;;;;;;8.1;83.6;99550;;;;
2022/10/04 20:38:44;;;;;;;5.8;11.2;;;;;;;7.9;83.9;99560;;;;
2022/10/04 20:49:44;;;;;;;5.8;11.2;;;;;;;7.8;84.8;99570;;;;
2022/10/04 21:00:44;;;;;;;5.8;11.2;;;;;;;8.1;87.6;99570;;;;
2022/10/04 21:10:44;;;;;;;6.1;9.8;;;;;;;8.4;87.5;99590;;;;
2022/10/04 21:21:44;;;;;;;6.1;9.8;;;;;;;8.7;86.9;99580;;;;
2022/10/04 21:32:44;;;;;;;8.6;15;;;;;;;8.7;86.1;99590;;;;
2022/10/04 21:43:44;;;;;;;8.6;15;;;;;;;8.7;85.1;99610;;;;
2022/10/04 21:53:44;;;;;;;8.6;15;;;;;;;8.5;84.7;99610;;;;
2022/10/04 22:03:44;;;;;;;9.4;15.2;;;;;;;8.4;85.8;99620;;;;
2022/10/04 22:14:44;;;;;;;9.4;15.2;;;;;;;8.4;85.6;99620;;;;
2022/10/04 22:25:44;;;;;;;9.4;15.2;;;;;;;8.2;85.1;99610;;;;
2022/10/04 22:35:44;;;;;;;7;11.8;;;;;;;8;85;99620;;;;
2022/10/04 22:46:44;;;;;;;7;11.8;;;;;;;7.9;85.8;99610;;;;
2022/10/04 22:57:44;;;;;;;7;11.8;;;;;;;7.9;86.2;99600;;;;
2022/10/04 23:08:44;;;;;;;6.4;10.4;;;;;;;7.7;85.8;99570;;;;
2022/10/04 23:19:44;;;;;;;6.4;10.4;;;;;;;7.5;85.2;99570;;;;
2022/10/04 23:29:44;;;;;;;6.4;10.4;;;;;;;7.2;85.1;99590;;;;
2022/10/04 23:40:44;;;;;;;4.9;11.8;;;;;;;7;85.1;99610;;;;
2022/10/04 23:50:44;;;;;;;4.9;11.8;;;;;;;6.9;85.4;99610;;;;
